createdAt,value
2023-01-12T00:10:13.093Z,98724.63
2023-01-12T00:20:40.723Z,98721.85
2023-01-12T00:31:10.069Z,98732.55
2023-01-12T00:41:57.285Z,98733.85
2023-01-12T00:52:30.833Z,98748.90
2023-01-12T01:02:59.259Z,98745.98
2023-01-12T01:13:26.759Z,98745.16
2023-01-12T01:23:54.398Z,98757.29
2023-01-12T01:34:23.855Z,98746.23
2023-01-12T01:44:57.079Z,98751.16
2023-01-12T01:55:27.722Z,98751.07
2023-01-12T02:05:56.833Z,98758.61
2023-01-12T02:16:27.498Z,98767.18
2023-01-12T02:27:18.066Z,98769.33
2023-01-12T02:37:54.598Z,98771.76
2023-01-12T02:48:28.649Z,98780.49
2023-01-12T02:59:00.851Z,98782.91
2023-01-12T03:09:32.867Z,98785.00
2023-01-12T03:20:04.746Z,98789.87
2023-01-12T03:30:36.959Z,98789.28
2023-01-12T03:41:11.600Z,98796.75
2023-01-12T03:51:43.144Z,98790.50
2023-01-12T04:02:11.187Z,98788.98
2023-01-12T04:12:38.887Z,98775.11
2023-01-12T04:23:07.528Z,98786.12
2023-01-12T04:33:33.561Z,98795.98
2023-01-12T04:44:01.150Z,98803.11
2023-01-12T04:54:28.743Z,98816.77
2023-01-12T05:05:05.440Z,98816.91
2023-01-12T05:15:33.003Z,98802.88
2023-01-12T05:26:02.616Z,98811.61
2023-01-12T05:36:30.146Z,98825.20
2023-01-12T05:46:57.742Z,98824.37
2023-01-12T05:57:25.316Z,98829.98
2023-01-12T06:07:52.824Z,98846.17
2023-01-12T06:18:22.666Z,98851.46
2023-01-12T06:28:50.356Z,98851.00
2023-01-12T06:39:18.195Z,98849.13
2023-01-12T06:49:45.738Z,98848.64
2023-01-12T07:00:15.031Z,98858.65
2023-01-12T07:10:42.559Z,98862.89
2023-01-12T07:21:13.611Z,98868.10
2023-01-12T07:31:41.281Z,98860.85
2023-01-12T07:42:24.679Z,98877.36
2023-01-12T07:52:52.421Z,98870.64
2023-01-12T08:03:19.948Z,98867.92
2023-01-12T08:13:47.586Z,98870.38
2023-01-12T08:24:18.091Z,98865.75
2023-01-12T08:34:48.089Z,98867.05
2023-01-12T08:45:15.673Z,98863.52
2023-01-12T08:55:43.343Z,98865.48
2023-01-12T09:06:16.379Z,98870.69
2023-01-12T09:16:44.272Z,98862.40
2023-01-12T09:27:13.098Z,98854.08
2023-01-12T09:37:43.711Z,98839.91
2023-01-12T09:48:14.812Z,98832.38
2023-01-12T09:59:03.558Z,98827.89
2023-01-12T10:09:32.166Z,98814.17
2023-01-12T10:20:02.220Z,98800.05
2023-01-12T10:30:33.066Z,98789.88
2023-01-12T10:41:17.098Z,98791.77
2023-01-12T10:51:53.473Z,98791.80
2023-01-12T11:02:22.868Z,98777.43
2023-01-12T11:12:57.088Z,98767.91
2023-01-12T11:23:30.673Z,98758.39
2023-01-12T11:34:04.023Z,98740.73
2023-01-12T11:44:40.823Z,98731.39
2023-01-12T11:55:13.802Z,98719.80
2023-01-12T12:05:49.678Z,98722.55
2023-01-12T12:16:29.462Z,98714.41
2023-01-12T12:27:05.395Z,98708.35
2023-01-12T12:37:48.571Z,98697.25
2023-01-12T12:48:21.451Z,98700.39
2023-01-12T12:58:50.200Z,98696.05
2023-01-12T13:09:37.090Z,98672.84
2023-01-12T13:20:44.227Z,98666.07
2023-01-12T13:31:33.464Z,98661.90
2023-01-12T13:42:18.855Z,98651.86
2023-01-12T13:52:57.861Z,98641.47
2023-01-12T14:03:46.743Z,98642.34
2023-01-12T14:14:44.632Z,98628.50
2023-01-12T14:25:21.890Z,98621.75
2023-01-12T14:35:52.337Z,98623.13
2023-01-12T14:46:28.249Z,98621.89
2023-01-12T14:56:59.732Z,98628.43
2023-01-12T15:07:31.915Z,98632.52
2023-01-12T15:18:31.275Z,98640.60
2023-01-12T15:28:58.773Z,98638.30
2023-01-12T15:39:26.421Z,98628.84
2023-01-12T15:49:54.379Z,98631.48
2023-01-12T16:00:25.254Z,98624.33
2023-01-12T16:11:13.404Z,98624.08
2023-01-12T16:21:41.038Z,98624.89
2023-01-12T16:32:08.789Z,98620.88
2023-01-12T16:42:36.411Z,98618.94
2023-01-12T16:53:03.998Z,98608.76
2023-01-12T17:03:31.749Z,98593.05
2023-01-12T17:13:59.696Z,98598.96
2023-01-12T17:24:28.073Z,98584.22
2023-01-12T17:34:55.750Z,98580.55
2023-01-12T17:45:23.410Z,98564.11
2023-01-12T17:55:52.298Z,98554.40
2023-01-12T18:06:26.623Z,98546.98
2023-01-12T18:16:54.510Z,98534.86
2023-01-12T18:27:22.196Z,98533.13
2023-01-12T18:37:49.800Z,98546.84
2023-01-12T18:48:24.380Z,98530.06
2023-01-12T18:58:52.471Z,98522.74
2023-01-12T19:09:38.678Z,98529.77
2023-01-12T19:20:08.234Z,98527.69
2023-01-12T19:30:36.259Z,98527.50
2023-01-12T19:41:11.969Z,98530.43
2023-01-12T19:51:40.016Z,98518.02
2023-01-12T20:02:07.781Z,98517.88
2023-01-12T20:12:35.369Z,98518.66
2023-01-12T20:23:03.159Z,98517.36
2023-01-12T20:33:30.796Z,98521.07
2023-01-12T20:43:58.407Z,98517.98
2023-01-12T20:54:25.987Z,98507.83
2023-01-12T21:04:53.751Z,98511.30
2023-01-12T21:15:21.308Z,98514.93
2023-01-12T21:25:50.230Z,98514.23
2023-01-12T21:36:19.804Z,98510.45
2023-01-12T21:46:49.032Z,98508.36
2023-01-12T21:57:16.676Z,98503.01
2023-01-12T22:07:44.189Z,98495.22
2023-01-12T22:18:11.972Z,98489.70
2023-01-12T22:28:41.659Z,98492.80
2023-01-12T22:39:09.226Z,98486.90
2023-01-12T22:49:36.719Z,98480.67
2023-01-12T23:00:04.688Z,98478.61
2023-01-12T23:10:32.572Z,98471.52
2023-01-12T23:21:11.222Z,98470.63
2023-01-12T23:31:37.541Z,98468.23
2023-01-12T23:42:05.224Z,98454.75
2023-01-12T23:52:33.038Z,98452.54
